sensor_id;sensor_type;location;lat;lon;timestamp;temperature;humidity
7720;DHT22;3902;49.474;8.616;2023-11-19T00:01:27;9.70;99.90
7720;DHT22;3902;49.474;8.616;2023-11-19T00:03:52;9.70;99.90
7720;DHT22;3902;49.474;8.616;2023-11-19T00:06:18;9.70;99.90
7720;DHT22;3902;49.474;8.616;2023-11-19T00:08:44;9.70;99.90
7720;DHT22;3902;49.474;8.616;2023-11-19T00:11:09;9.70;99.90
7720;DHT22;3902;49.474;8.616;2023-11-19T00:13:36;9.70;99.90
7720;DHT22;3902;49.474;8.616;2023-11-19T00:16:01;9.70;99.90
7720;DHT22;3902;49.474;8.616;2023-11-19T00:18:29;9.80;99.90
7720;DHT22;3902;49.474;8.616;2023-11-19T00:20:55;9.80;99.90
7720;DHT22;3902;49.474;8.616;2023-11-19T00:23:20;9.80;99.90
7720;DHT22;3902;49.474;8.616;2023-11-19T00:25:46;9.70;99.90
7720;DHT22;3902;49.474;8.616;2023-11-19T00:28:13;9.70;99.90
7720;DHT22;3902;49.474;8.616;2023-11-19T00:30:38;9.80;99.90
7720;DHT22;3902;49.474;8.616;2023-11-19T00:33:06;9.80;99.90
7720;DHT22;3902;49.474;8.616;2023-11-19T00:35:31;9.80;99.90
7720;DHT22;3902;49.474;8.616;2023-11-19T00:37:57;9.70;99.90
7720;DHT22;3902;49.474;8.616;2023-11-19T00:40:23;9.70;99.90
7720;DHT22;3902;49.474;8.616;2023-11-19T00:42:49;9.80;99.90
7720;DHT22;3902;49.474;8.616;2023-11-19T00:45:14;9.80;99.90
7720;DHT22;3902;49.474;8.616;2023-11-19T00:47:40;9.80;99.90
7720;DHT22;3902;49.474;8.616;2023-11-19T00:50:07;9.80;99.90
7720;DHT22;3902;49.474;8.616;2023-11-19T00:52:35;9.80;99.90
7720;DHT22;3902;49.474;8.616;2023-11-19T00:55:01;9.90;99.90
7720;DHT22;3902;49.474;8.616;2023-11-19T00:57:26;9.90;99.90
7720;DHT22;3902;49.474;8.616;2023-11-19T00:59:52;9.90;99.90
7720;DHT22;3902;49.474;8.616;2023-11-19T01:02:17;9.90;99.90
7720;DHT22;3902;49.474;8.616;2023-11-19T01:04:43;9.90;99.90
7720;DHT22;3902;49.474;8.616;2023-11-19T01:07:09;9.90;99.90
7720;DHT22;3902;49.474;8.616;2023-11-19T01:09:38;9.90;99.90
7720;DHT22;3902;49.474;8.616;2023-11-19T01:12:04;9.90;99.90
7720;DHT22;3902;49.474;8.616;2023-11-19T01:14:30;9.90;99.90
7720;DHT22;3902;49.474;8.616;2023-11-19T01:16:56;10.00;99.90
7720;DHT22;3902;49.474;8.616;2023-11-19T01:19:22;10.00;99.90
7720;DHT22;3902;49.474;8.616;2023-11-19T01:21:48;10.00;99.90
7720;DHT22;3902;49.474;8.616;2023-11-19T01:24:14;10.00;99.90
7720;DHT22;3902;49.474;8.616;2023-11-19T01:26:40;10.00;99.90
7720;DHT22;3902;49.474;8.616;2023-11-19T01:29:11;10.10;99.90
7720;DHT22;3902;49.474;8.616;2023-11-19T01:31:39;10.10;99.90
7720;DHT22;3902;49.474;8.616;2023-11-19T01:34:05;10.10;99.90
7720;DHT22;3902;49.474;8.616;2023-11-19T01:36:30;10.10;99.90
7720;DHT22;3902;49.474;8.616;2023-11-19T01:38:56;10.10;99.90
7720;DHT22;3902;49.474;8.616;2023-11-19T01:41:21;10.10;99.90
7720;DHT22;3902;49.474;8.616;2023-11-19T01:43:47;10.10;99.90
7720;DHT22;3902;49.474;8.616;2023-11-19T01:46:12;10.20;99.90
7720;DHT22;3902;49.474;8.616;2023-11-19T01:48:44;10.20;99.90
7720;DHT22;3902;49.474;8.616;2023-11-19T01:51:12;10.20;99.90
7720;DHT22;3902;49.474;8.616;2023-11-19T01:53:38;10.20;99.90
7720;DHT22;3902;49.474;8.616;2023-11-19T01:56:07;10.10;99.90
7720;DHT22;3902;49.474;8.616;2023-11-19T01:58:35;10.20;99.90
7720;DHT22;3902;49.474;8.616;2023-11-19T02:01:01;10.20;99.90
7720;DHT22;3902;49.474;8.616;2023-11-19T02:03:30;10.20;99.90
7720;DHT22;3902;49.474;8.616;2023-11-19T02:05:56;10.20;99.90
7720;DHT22;3902;49.474;8.616;2023-11-19T02:08:23;10.20;99.90
7720;DHT22;3902;49.474;8.616;2023-11-19T02:10:48;10.30;99.90
7720;DHT22;3902;49.474;8.616;2023-11-19T02:13:14;10.20;99.90
7720;DHT22;3902;49.474;8.616;2023-11-19T02:15:40;10.20;99.90
7720;DHT22;3902;49.474;8.616;2023-11-19T02:18:23;10.20;99.90
7720;DHT22;3902;49.474;8.616;2023-11-19T02:20:50;10.20;99.90
7720;DHT22;3902;49.474;8.616;2023-11-19T02:23:16;10.20;99.90
7720;DHT22;3902;49.474;8.616;2023-11-19T02:25:43;10.20;99.90
7720;DHT22;3902;49.474;8.616;2023-11-19T02:28:12;10.20;99.90
7720;DHT22;3902;49.474;8.616;2023-11-19T02:30:38;10.20;99.90
7720;DHT22;3902;49.474;8.616;2023-11-19T02:33:04;10.20;99.90
7720;DHT22;3902;49.474;8.616;2023-11-19T02:35:33;10.20;99.90
7720;DHT22;3902;49.474;8.616;2023-11-19T02:37:59;10.30;99.90
7720;DHT22;3902;49.474;8.616;2023-11-19T02:40:26;10.30;99.90
7720;DHT22;3902;49.474;8.616;2023-11-19T02:42:55;10.30;99.90
7720;DHT22;3902;49.474;8.616;2023-11-19T02:45:22;10.20;99.90
7720;DHT22;3902;49.474;8.616;2023-11-19T02:47:48;10.30;99.90
7720;DHT22;3902;49.474;8.616;2023-11-19T02:50:14;10.30;99.90
7720;DHT22;3902;49.474;8.616;2023-11-19T02:52:43;10.30;99.90
7720;DHT22;3902;49.474;8.616;2023-11-19T02:55:13;10.40;99.90
7720;DHT22;3902;49.474;8.616;2023-11-19T02:57:40;10.30;99.90
7720;DHT22;3902;49.474;8.616;2023-11-19T03:00:17;10.40;99.90
7720;DHT22;3902;49.474;8.616;2023-11-19T03:02:44;10.30;99.90
7720;DHT22;3902;49.474;8.616;2023-11-19T03:05:19;10.40;99.90
7720;DHT22;3902;49.474;8.616;2023-11-19T03:07:45;10.40;99.90
7720;DHT22;3902;49.474;8.616;2023-11-19T03:10:11;10.40;99.90
7720;DHT22;3902;49.474;8.616;2023-11-19T03:12:40;10.40;99.90
7720;DHT22;3902;49.474;8.616;2023-11-19T03:15:06;10.40;99.90
7720;DHT22;3902;49.474;8.616;2023-11-19T03:17:32;10.40;99.90
7720;DHT22;3902;49.474;8.616;2023-11-19T03:19:59;10.40;99.90
7720;DHT22;3902;49.474;8.616;2023-11-19T03:22:26;10.40;99.90
7720;DHT22;3902;49.474;8.616;2023-11-19T03:24:51;10.50;99.90
7720;DHT22;3902;49.474;8.616;2023-11-19T03:27:17;10.50;99.90
7720;DHT22;3902;49.474;8.616;2023-11-19T03:29:42;10.50;99.90
7720;DHT22;3902;49.474;8.616;2023-11-19T03:32:08;10.50;99.90
7720;DHT22;3902;49.474;8.616;2023-11-19T03:34:34;10.50;99.90
7720;DHT22;3902;49.474;8.616;2023-11-19T03:36:59;10.50;99.90
7720;DHT22;3902;49.474;8.616;2023-11-19T03:39:25;10.50;99.90
7720;DHT22;3902;49.474;8.616;2023-11-19T03:41:52;10.50;99.90
7720;DHT22;3902;49.474;8.616;2023-11-19T03:44:17;10.50;99.90
7720;DHT22;3902;49.474;8.616;2023-11-19T03:46:44;10.50;99.90
7720;DHT22;3902;49.474;8.616;2023-11-19T03:49:10;10.60;99.90
7720;DHT22;3902;49.474;8.616;2023-11-19T03:51:35;10.60;99.90
7720;DHT22;3902;49.474;8.616;2023-11-19T03:54:01;10.60;99.90
7720;DHT22;3902;49.474;8.616;2023-11-19T03:56:26;10.60;99.90
7720;DHT22;3902;49.474;8.616;2023-11-19T03:58:52;10.60;99.90
7720;DHT22;3902;49.474;8.616;2023-11-19T04:01:18;10.60;99.90
7720;DHT22;3902;49.474;8.616;2023-11-19T04:03:43;10.60;99.90
7720;DHT22;3902;49.474;8.616;2023-11-19T04:06:09;10.60;99.90
7720;DHT22;3902;49.474;8.616;2023-11-19T04:08:35;10.60;99.90
7720;DHT22;3902;49.474;8.616;2023-11-19T04:11:02;10.70;99.90
7720;DHT22;3902;49.474;8.616;2023-11-19T04:13:28;10.70;99.90
7720;DHT22;3902;49.474;8.616;2023-11-19T04:15:53;10.70;99.90
7720;DHT22;3902;49.474;8.616;2023-11-19T04:18:19;10.70;99.90
7720;DHT22;3902;49.474;8.616;2023-11-19T04:20:44;10.70;99.90
7720;DHT22;3902;49.474;8.616;2023-11-19T04:23:10;10.70;99.90
7720;DHT22;3902;49.474;8.616;2023-11-19T04:25:36;10.80;99.90
7720;DHT22;3902;49.474;8.616;2023-11-19T04:28:02;10.70;99.90
7720;DHT22;3902;49.474;8.616;2023-11-19T04:30:28;10.70;99.90
7720;DHT22;3902;49.474;8.616;2023-11-19T04:32:53;10.80;99.90
7720;DHT22;3902;49.474;8.616;2023-11-19T04:35:19;10.80;99.90
7720;DHT22;3902;49.474;8.616;2023-11-19T04:37:44;10.80;99.90
7720;DHT22;3902;49.474;8.616;2023-11-19T04:40:10;10.80;99.90
7720;DHT22;3902;49.474;8.616;2023-11-19T04:42:37;10.80;99.90
7720;DHT22;3902;49.474;8.616;2023-11-19T04:45:06;10.80;99.90
7720;DHT22;3902;49.474;8.616;2023-11-19T04:47:32;10.80;99.90
7720;DHT22;3902;49.474;8.616;2023-11-19T04:49:58;10.80;99.90
7720;DHT22;3902;49.474;8.616;2023-11-19T04:52:23;10.80;99.90
7720;DHT22;3902;49.474;8.616;2023-11-19T04:54:49;10.90;99.90
7720;DHT22;3902;49.474;8.616;2023-11-19T04:57:14;10.90;99.90
7720;DHT22;3902;49.474;8.616;2023-11-19T04:59:40;10.90;99.90
7720;DHT22;3902;49.474;8.616;2023-11-19T05:02:06;10.90;99.90
7720;DHT22;3902;49.474;8.616;2023-11-19T05:04:33;10.90;99.90
7720;DHT22;3902;49.474;8.616;2023-11-19T05:06:59;10.90;99.90
7720;DHT22;3902;49.474;8.616;2023-11-19T05:09:24;10.90;99.90
7720;DHT22;3902;49.474;8.616;2023-11-19T05:11:49;10.90;99.90
7720;DHT22;3902;49.474;8.616;2023-11-19T05:14:15;11.00;99.90
7720;DHT22;3902;49.474;8.616;2023-11-19T05:16:41;10.90;99.90
7720;DHT22;3902;49.474;8.616;2023-11-19T05:19:08;11.00;99.90
7720;DHT22;3902;49.474;8.616;2023-11-19T05:21:34;11.00;99.90
7720;DHT22;3902;49.474;8.616;2023-11-19T05:24:01;11.00;99.90
7720;DHT22;3902;49.474;8.616;2023-11-19T05:26:29;11.00;99.90
7720;DHT22;3902;49.474;8.616;2023-11-19T05:28:55;11.00;99.90
7720;DHT22;3902;49.474;8.616;2023-11-19T05:31:21;11.00;99.90
7720;DHT22;3902;49.474;8.616;2023-11-19T05:33:46;11.10;99.90
7720;DHT22;3902;49.474;8.616;2023-11-19T05:36:12;11.10;99.90
7720;DHT22;3902;49.474;8.616;2023-11-19T05:38:38;11.10;99.90
7720;DHT22;3902;49.474;8.616;2023-11-19T05:41:04;11.10;99.90
7720;DHT22;3902;49.474;8.616;2023-11-19T05:43:30;11.10;99.90
7720;DHT22;3902;49.474;8.616;2023-11-19T05:45:56;11.10;99.90
7720;DHT22;3902;49.474;8.616;2023-11-19T05:48:21;11.10;99.90
7720;DHT22;3902;49.474;8.616;2023-11-19T05:50:47;11.20;99.90
7720;DHT22;3902;49.474;8.616;2023-11-19T05:53:15;11.20;99.90
7720;DHT22;3902;49.474;8.616;2023-11-19T05:55:40;11.20;99.90
7720;DHT22;3902;49.474;8.616;2023-11-19T05:58:14;11.20;99.90
7720;DHT22;3902;49.474;8.616;2023-11-19T06:00:39;11.20;99.90
7720;DHT22;3902;49.474;8.616;2023-11-19T06:03:07;11.30;99.90
7720;DHT22;3902;49.474;8.616;2023-11-19T06:05:32;11.30;99.90
7720;DHT22;3902;49.474;8.616;2023-11-19T06:07:58;11.30;99.90
7720;DHT22;3902;49.474;8.616;2023-11-19T06:10:23;11.30;99.90
7720;DHT22;3902;49.474;8.616;2023-11-19T06:12:58;11.30;99.90
7720;DHT22;3902;49.474;8.616;2023-11-19T06:15:26;11.30;99.90
7720;DHT22;3902;49.474;8.616;2023-11-19T06:17:52;11.30;99.90
7720;DHT22;3902;49.474;8.616;2023-11-19T06:20:18;11.30;99.90
7720;DHT22;3902;49.474;8.616;2023-11-19T06:22:45;11.30;99.90
7720;DHT22;3902;49.474;8.616;2023-11-19T06:25:11;11.30;99.90
7720;DHT22;3902;49.474;8.616;2023-11-19T06:27:36;11.40;99.90
7720;DHT22;3902;49.474;8.616;2023-11-19T06:30:02;11.40;99.90
7720;DHT22;3902;49.474;8.616;2023-11-19T06:32:28;11.40;99.90
7720;DHT22;3902;49.474;8.616;2023-11-19T06:34:54;11.40;99.90
7720;DHT22;3902;49.474;8.616;2023-11-19T06:37:20;11.40;99.90
7720;DHT22;3902;49.474;8.616;2023-11-19T06:39:45;11.40;99.90
7720;DHT22;3902;49.474;8.616;2023-11-19T06:42:11;11.40;99.90
7720;DHT22;3902;49.474;8.616;2023-11-19T06:44:36;11.50;99.90
7720;DHT22;3902;49.474;8.616;2023-11-19T06:47:02;11.50;99.90
7720;DHT22;3902;49.474;8.616;2023-11-19T06:49:27;11.50;99.90
7720;DHT22;3902;49.474;8.616;2023-11-19T06:51:53;11.50;99.90
7720;DHT22;3902;49.474;8.616;2023-11-19T06:54:19;11.50;99.90
7720;DHT22;3902;49.474;8.616;2023-11-19T06:56:44;11.50;99.90
7720;DHT22;3902;49.474;8.616;2023-11-19T06:59:10;11.50;99.90
7720;DHT22;3902;49.474;8.616;2023-11-19T07:01:36;11.60;99.90
7720;DHT22;3902;49.474;8.616;2023-11-19T07:04:02;11.60;99.90
7720;DHT22;3902;49.474;8.616;2023-11-19T07:06:35;11.60;99.90
7720;DHT22;3902;49.474;8.616;2023-11-19T07:09:01;11.60;99.90
7720;DHT22;3902;49.474;8.616;2023-11-19T07:11:38;11.60;99.90
7720;DHT22;3902;49.474;8.616;2023-11-19T07:14:05;11.60;99.90
7720;DHT22;3902;49.474;8.616;2023-11-19T07:16:32;11.70;99.90
7720;DHT22;3902;49.474;8.616;2023-11-19T07:18:58;11.70;99.90
7720;DHT22;3902;49.474;8.616;2023-11-19T07:21:25;11.70;99.90
7720;DHT22;3902;49.474;8.616;2023-11-19T07:23:51;11.70;99.90
7720;DHT22;3902;49.474;8.616;2023-11-19T07:26:17;11.70;99.90
7720;DHT22;3902;49.474;8.616;2023-11-19T07:28:43;11.80;99.90
7720;DHT22;3902;49.474;8.616;2023-11-19T07:31:10;11.80;99.90
7720;DHT22;3902;49.474;8.616;2023-11-19T07:33:35;11.80;99.90
7720;DHT22;3902;49.474;8.616;2023-11-19T07:36:01;11.80;99.90
7720;DHT22;3902;49.474;8.616;2023-11-19T07:38:27;11.80;99.90
7720;DHT22;3902;49.474;8.616;2023-11-19T07:40:52;11.80;99.90
7720;DHT22;3902;49.474;8.616;2023-11-19T07:43:18;11.90;99.90
7720;DHT22;3902;49.474;8.616;2023-11-19T07:45:43;11.90;99.90
7720;DHT22;3902;49.474;8.616;2023-11-19T07:48:11;11.90;99.90
7720;DHT22;3902;49.474;8.616;2023-11-19T07:50:38;11.90;99.90
7720;DHT22;3902;49.474;8.616;2023-11-19T07:53:06;11.90;99.90
7720;DHT22;3902;49.474;8.616;2023-11-19T07:55:32;11.90;99.90
7720;DHT22;3902;49.474;8.616;2023-11-19T07:57:58;11.90;99.90
7720;DHT22;3902;49.474;8.616;2023-11-19T08:00:23;11.90;99.90
7720;DHT22;3902;49.474;8.616;2023-11-19T08:02:48;11.90;99.90
7720;DHT22;3902;49.474;8.616;2023-11-19T08:05:14;12.00;99.90
7720;DHT22;3902;49.474;8.616;2023-11-19T08:07:39;12.00;99.90
7720;DHT22;3902;49.474;8.616;2023-11-19T08:10:05;12.00;99.90
7720;DHT22;3902;49.474;8.616;2023-11-19T08:12:35;12.00;99.90
7720;DHT22;3902;49.474;8.616;2023-11-19T08:15:02;12.00;99.90
7720;DHT22;3902;49.474;8.616;2023-11-19T08:17:27;12.00;99.90
7720;DHT22;3902;49.474;8.616;2023-11-19T08:19:53;12.00;99.90
7720;DHT22;3902;49.474;8.616;2023-11-19T08:22:18;12.00;99.90
7720;DHT22;3902;49.474;8.616;2023-11-19T08:24:44;12.00;99.90
7720;DHT22;3902;49.474;8.616;2023-11-19T08:27:09;12.00;99.90
7720;DHT22;3902;49.474;8.616;2023-11-19T08:29:35;12.00;99.90
7720;DHT22;3902;49.474;8.616;2023-11-19T08:32:01;12.00;99.90
7720;DHT22;3902;49.474;8.616;2023-11-19T08:34:28;12.10;99.90
7720;DHT22;3902;49.474;8.616;2023-11-19T08:36:54;12.10;99.90
7720;DHT22;3902;49.474;8.616;2023-11-19T08:39:19;12.10;99.90
7720;DHT22;3902;49.474;8.616;2023-11-19T08:41:47;12.10;99.90
7720;DHT22;3902;49.474;8.616;2023-11-19T08:44:13;12.10;99.90
7720;DHT22;3902;49.474;8.616;2023-11-19T08:46:38;12.10;99.90
7720;DHT22;3902;49.474;8.616;2023-11-19T08:49:05;12.20;99.90
7720;DHT22;3902;49.474;8.616;2023-11-19T08:51:30;12.20;99.90
7720;DHT22;3902;49.474;8.616;2023-11-19T08:53:56;12.30;99.90
7720;DHT22;3902;49.474;8.616;2023-11-19T08:56:22;12.30;99.90
7720;DHT22;3902;49.474;8.616;2023-11-19T08:58:48;12.30;99.90
7720;DHT22;3902;49.474;8.616;2023-11-19T09:01:14;12.30;99.90
7720;DHT22;3902;49.474;8.616;2023-11-19T09:03:40;12.40;99.90
7720;DHT22;3902;49.474;8.616;2023-11-19T09:06:06;12.40;99.90
7720;DHT22;3902;49.474;8.616;2023-11-19T09:08:31;12.40;99.90
7720;DHT22;3902;49.474;8.616;2023-11-19T09:10:57;12.50;99.90
7720;DHT22;3902;49.474;8.616;2023-11-19T09:13:22;12.50;99.90
7720;DHT22;3902;49.474;8.616;2023-11-19T09:15:48;12.50;99.90
7720;DHT22;3902;49.474;8.616;2023-11-19T09:18:13;12.50;99.90
7720;DHT22;3902;49.474;8.616;2023-11-19T09:20:39;12.50;99.90
7720;DHT22;3902;49.474;8.616;2023-11-19T09:23:05;12.50;99.90
7720;DHT22;3902;49.474;8.616;2023-11-19T09:25:31;12.50;99.90
7720;DHT22;3902;49.474;8.616;2023-11-19T09:27:57;12.60;99.90
7720;DHT22;3902;49.474;8.616;2023-11-19T09:30:22;12.60;99.90
7720;DHT22;3902;49.474;8.616;2023-11-19T09:32:48;12.60;99.90
7720;DHT22;3902;49.474;8.616;2023-11-19T09:35:13;12.70;99.90
7720;DHT22;3902;49.474;8.616;2023-11-19T09:37:40;12.70;99.90
7720;DHT22;3902;49.474;8.616;2023-11-19T09:40:06;12.80;99.90
7720;DHT22;3902;49.474;8.616;2023-11-19T09:42:42;12.90;99.90
7720;DHT22;3902;49.474;8.616;2023-11-19T09:45:14;12.90;99.90
7720;DHT22;3902;49.474;8.616;2023-11-19T09:47:44;13.00;99.90
7720;DHT22;3902;49.474;8.616;2023-11-19T09:50:16;13.00;99.90
7720;DHT22;3902;49.474;8.616;2023-11-19T09:52:42;13.00;99.90
7720;DHT22;3902;49.474;8.616;2023-11-19T09:55:08;13.00;99.90
7720;DHT22;3902;49.474;8.616;2023-11-19T09:57:34;13.10;99.90
7720;DHT22;3902;49.474;8.616;2023-11-19T10:00:03;13.10;99.90
7720;DHT22;3902;49.474;8.616;2023-11-19T10:02:31;13.00;99.90
7720;DHT22;3902;49.474;8.616;2023-11-19T10:04:59;13.10;99.90
7720;DHT22;3902;49.474;8.616;2023-11-19T10:07:27;13.00;99.90
7720;DHT22;3902;49.474;8.616;2023-11-19T10:09:53;13.10;99.90
7720;DHT22;3902;49.474;8.616;2023-11-19T10:12:18;13.00;99.90
7720;DHT22;3902;49.474;8.616;2023-11-19T10:14:45;13.00;99.90
7720;DHT22;3902;49.474;8.616;2023-11-19T10:17:11;13.00;99.90
7720;DHT22;3902;49.474;8.616;2023-11-19T10:19:36;13.10;99.90
7720;DHT22;3902;49.474;8.616;2023-11-19T10:22:05;13.10;99.90
7720;DHT22;3902;49.474;8.616;2023-11-19T10:24:32;13.20;99.90
7720;DHT22;3902;49.474;8.616;2023-11-19T10:27:01;13.20;99.90
7720;DHT22;3902;49.474;8.616;2023-11-19T10:29:29;13.40;99.90
7720;DHT22;3902;49.474;8.616;2023-11-19T10:31:58;13.50;99.90
7720;DHT22;3902;49.474;8.616;2023-11-19T10:34:27;13.70;99.90
7720;DHT22;3902;49.474;8.616;2023-11-19T10:36:53;13.90;99.90
7720;DHT22;3902;49.474;8.616;2023-11-19T10:39:19;14.00;99.90
7720;DHT22;3902;49.474;8.616;2023-11-19T10:41:46;14.20;99.90
7720;DHT22;3902;49.474;8.616;2023-11-19T10:44:11;14.30;99.90
7720;DHT22;3902;49.474;8.616;2023-11-19T10:46:39;14.50;99.90
7720;DHT22;3902;49.474;8.616;2023-11-19T10:49:05;14.90;99.90
7720;DHT22;3902;49.474;8.616;2023-11-19T10:51:31;15.40;99.90
7720;DHT22;3902;49.474;8.616;2023-11-19T10:54:02;15.80;99.90
7720;DHT22;3902;49.474;8.616;2023-11-19T10:56:30;16.60;99.90
7720;DHT22;3902;49.474;8.616;2023-11-19T10:58:56;17.30;99.90
7720;DHT22;3902;49.474;8.616;2023-11-19T11:01:27;18.00;99.90
7720;DHT22;3902;49.474;8.616;2023-11-19T11:03:59;18.20;99.90
7720;DHT22;3902;49.474;8.616;2023-11-19T11:06:26;18.40;99.90
7720;DHT22;3902;49.474;8.616;2023-11-19T11:08:52;18.20;99.90
7720;DHT22;3902;49.474;8.616;2023-11-19T11:11:18;18.10;99.90
7720;DHT22;3902;49.474;8.616;2023-11-19T11:13:47;17.80;99.90
7720;DHT22;3902;49.474;8.616;2023-11-19T11:16:15;17.50;99.90
7720;DHT22;3902;49.474;8.616;2023-11-19T11:18:45;17.20;99.90
7720;DHT22;3902;49.474;8.616;2023-11-19T11:21:15;16.70;99.90
7720;DHT22;3902;49.474;8.616;2023-11-19T11:26:55;16.00;99.90
7720;DHT22;3902;49.474;8.616;2023-11-19T11:29:38;15.80;99.90
7720;DHT22;3902;49.474;8.616;2023-11-19T11:32:18;15.60;99.90
7720;DHT22;3902;49.474;8.616;2023-11-19T11:34:58;15.40;99.90
7720;DHT22;3902;49.474;8.616;2023-11-19T11:37:37;15.30;99.90
7720;DHT22;3902;49.474;8.616;2023-11-19T11:40:03;15.10;99.90
7720;DHT22;3902;49.474;8.616;2023-11-19T11:42:38;15.00;99.90
7720;DHT22;3902;49.474;8.616;2023-11-19T11:45:12;15.00;99.90
7720;DHT22;3902;49.474;8.616;2023-11-19T11:50:19;15.00;99.90
7720;DHT22;3902;49.474;8.616;2023-11-19T11:55:28;15.80;99.90
7720;DHT22;3902;49.474;8.616;2023-11-19T11:57:54;16.10;99.90
7720;DHT22;3902;49.474;8.616;2023-11-19T12:02:56;17.30;99.90
7720;DHT22;3902;49.474;8.616;2023-11-19T12:05:22;17.80;99.90
7720;DHT22;3902;49.474;8.616;2023-11-19T12:08:00;18.40;99.90
7720;DHT22;3902;49.474;8.616;2023-11-19T12:10:30;19.20;99.90
7720;DHT22;3902;49.474;8.616;2023-11-19T12:12:59;19.60;99.90
7720;DHT22;3902;49.474;8.616;2023-11-19T12:15:25;20.00;99.90
7720;DHT22;3902;49.474;8.616;2023-11-19T12:17:53;19.70;99.90
7720;DHT22;3902;49.474;8.616;2023-11-19T12:20:21;19.30;99.90
7720;DHT22;3902;49.474;8.616;2023-11-19T12:22:47;18.80;99.90
7720;DHT22;3902;49.474;8.616;2023-11-19T12:25:15;18.30;99.90
7720;DHT22;3902;49.474;8.616;2023-11-19T12:27:49;17.80;99.90
7720;DHT22;3902;49.474;8.616;2023-11-19T12:30:22;17.50;99.90
7720;DHT22;3902;49.474;8.616;2023-11-19T12:32:49;17.20;99.90
7720;DHT22;3902;49.474;8.616;2023-11-19T12:35:15;16.90;99.90
7720;DHT22;3902;49.474;8.616;2023-11-19T12:37:47;16.80;99.90
7720;DHT22;3902;49.474;8.616;2023-11-19T12:40:23;16.60;99.90
7720;DHT22;3902;49.474;8.616;2023-11-19T12:42:53;16.50;99.90
7720;DHT22;3902;49.474;8.616;2023-11-19T12:45:20;16.40;99.90
7720;DHT22;3902;49.474;8.616;2023-11-19T12:47:48;16.20;99.90
7720;DHT22;3902;49.474;8.616;2023-11-19T12:50:15;16.20;99.90
7720;DHT22;3902;49.474;8.616;2023-11-19T12:52:42;16.10;99.90
7720;DHT22;3902;49.474;8.616;2023-11-19T12:55:29;16.20;99.90
7720;DHT22;3902;49.474;8.616;2023-11-19T12:57:55;16.50;99.90
7720;DHT22;3902;49.474;8.616;2023-11-19T13:00:22;16.80;99.90
7720;DHT22;3902;49.474;8.616;2023-11-19T13:05:33;18.10;99.90
7720;DHT22;3902;49.474;8.616;2023-11-19T13:08:06;18.90;99.90
7720;DHT22;3902;49.474;8.616;2023-11-19T13:10:33;19.40;99.90
7720;DHT22;3902;49.474;8.616;2023-11-19T13:13:03;20.00;99.90
7720;DHT22;3902;49.474;8.616;2023-11-19T13:15:29;20.30;99.90
7720;DHT22;3902;49.474;8.616;2023-11-19T13:17:55;20.70;99.90
7720;DHT22;3902;49.474;8.616;2023-11-19T13:20:20;21.10;99.90
7720;DHT22;3902;49.474;8.616;2023-11-19T13:22:57;21.30;99.90
7720;DHT22;3902;49.474;8.616;2023-11-19T13:25:22;21.30;99.90
7720;DHT22;3902;49.474;8.616;2023-11-19T13:27:48;21.10;99.90
7720;DHT22;3902;49.474;8.616;2023-11-19T13:30:14;20.70;99.90
7720;DHT22;3902;49.474;8.616;2023-11-19T13:32:40;20.30;99.90
7720;DHT22;3902;49.474;8.616;2023-11-19T13:35:05;19.70;99.90
7720;DHT22;3902;49.474;8.616;2023-11-19T13:37:34;19.40;99.90
7720;DHT22;3902;49.474;8.616;2023-11-19T13:40:00;19.20;99.90
7720;DHT22;3902;49.474;8.616;2023-11-19T13:42:25;18.80;99.90
7720;DHT22;3902;49.474;8.616;2023-11-19T13:44:51;18.70;99.90
7720;DHT22;3902;49.474;8.616;2023-11-19T13:47:17;18.70;99.90
7720;DHT22;3902;49.474;8.616;2023-11-19T13:49:44;18.50;99.90
7720;DHT22;3902;49.474;8.616;2023-11-19T13:52:10;18.60;99.90
7720;DHT22;3902;49.474;8.616;2023-11-19T13:54:36;18.70;99.90
7720;DHT22;3902;49.474;8.616;2023-11-19T13:57:03;18.90;99.90
7720;DHT22;3902;49.474;8.616;2023-11-19T13:59:30;18.80;99.90
7720;DHT22;3902;49.474;8.616;2023-11-19T14:01:56;18.70;99.90
7720;DHT22;3902;49.474;8.616;2023-11-19T14:04:22;18.60;99.90
7720;DHT22;3902;49.474;8.616;2023-11-19T14:06:47;18.20;99.90
7720;DHT22;3902;49.474;8.616;2023-11-19T14:09:13;17.80;99.90
7720;DHT22;3902;49.474;8.616;2023-11-19T14:11:38;17.40;99.90
7720;DHT22;3902;49.474;8.616;2023-11-19T14:14:04;17.20;99.90
7720;DHT22;3902;49.474;8.616;2023-11-19T14:16:29;17.10;99.90
7720;DHT22;3902;49.474;8.616;2023-11-19T14:18:55;17.00;99.90
7720;DHT22;3902;49.474;8.616;2023-11-19T14:21:20;16.80;99.90
7720;DHT22;3902;49.474;8.616;2023-11-19T14:23:46;16.80;99.90
7720;DHT22;3902;49.474;8.616;2023-11-19T14:26:12;16.70;99.90
7720;DHT22;3902;49.474;8.616;2023-11-19T14:28:37;16.80;99.90
7720;DHT22;3902;49.474;8.616;2023-11-19T14:31:04;16.70;99.90
7720;DHT22;3902;49.474;8.616;2023-11-19T14:33:29;16.70;99.90
7720;DHT22;3902;49.474;8.616;2023-11-19T14:35:55;16.70;99.90
7720;DHT22;3902;49.474;8.616;2023-11-19T14:38:20;16.70;99.90
7720;DHT22;3902;49.474;8.616;2023-11-19T14:40:46;16.70;99.90
7720;DHT22;3902;49.474;8.616;2023-11-19T14:43:13;16.60;99.90
7720;DHT22;3902;49.474;8.616;2023-11-19T14:45:40;16.50;99.90
7720;DHT22;3902;49.474;8.616;2023-11-19T14:48:06;16.50;99.90
7720;DHT22;3902;49.474;8.616;2023-11-19T14:50:31;16.40;99.90
7720;DHT22;3902;49.474;8.616;2023-11-19T14:52:57;16.30;99.90
7720;DHT22;3902;49.474;8.616;2023-11-19T14:55:23;16.20;99.90
7720;DHT22;3902;49.474;8.616;2023-11-19T14:57:49;16.20;99.90
7720;DHT22;3902;49.474;8.616;2023-11-19T15:00:16;16.10;99.90
7720;DHT22;3902;49.474;8.616;2023-11-19T15:02:41;16.00;99.90
7720;DHT22;3902;49.474;8.616;2023-11-19T15:05:08;16.00;99.90
7720;DHT22;3902;49.474;8.616;2023-11-19T15:07:37;16.00;99.90
7720;DHT22;3902;49.474;8.616;2023-11-19T15:10:03;15.90;99.90
7720;DHT22;3902;49.474;8.616;2023-11-19T15:12:29;15.70;99.90
7720;DHT22;3902;49.474;8.616;2023-11-19T15:14:55;15.60;99.90
7720;DHT22;3902;49.474;8.616;2023-11-19T15:17:20;15.50;99.90
7720;DHT22;3902;49.474;8.616;2023-11-19T15:19:46;15.40;99.90
7720;DHT22;3902;49.474;8.616;2023-11-19T15:22:12;15.40;99.90
7720;DHT22;3902;49.474;8.616;2023-11-19T15:24:38;15.40;99.90
7720;DHT22;3902;49.474;8.616;2023-11-19T15:27:05;15.40;99.90
7720;DHT22;3902;49.474;8.616;2023-11-19T15:29:30;15.30;99.90
7720;DHT22;3902;49.474;8.616;2023-11-19T15:31:58;15.30;99.90
7720;DHT22;3902;49.474;8.616;2023-11-19T15:34:24;15.20;99.90
7720;DHT22;3902;49.474;8.616;2023-11-19T15:36:50;15.20;99.90
7720;DHT22;3902;49.474;8.616;2023-11-19T15:39:16;15.10;99.90
7720;DHT22;3902;49.474;8.616;2023-11-19T15:41:41;15.10;99.90
7720;DHT22;3902;49.474;8.616;2023-11-19T15:44:07;15.00;99.90
7720;DHT22;3902;49.474;8.616;2023-11-19T15:46:33;15.00;99.90
7720;DHT22;3902;49.474;8.616;2023-11-19T15:48:58;15.00;99.90
7720;DHT22;3902;49.474;8.616;2023-11-19T15:51:24;15.00;99.90
7720;DHT22;3902;49.474;8.616;2023-11-19T15:53:49;15.00;99.90
7720;DHT22;3902;49.474;8.616;2023-11-19T15:56:15;14.90;99.90
7720;DHT22;3902;49.474;8.616;2023-11-19T15:58:41;14.90;99.90
7720;DHT22;3902;49.474;8.616;2023-11-19T16:01:07;14.90;99.90
7720;DHT22;3902;49.474;8.616;2023-11-19T16:03:33;14.90;99.90
7720;DHT22;3902;49.474;8.616;2023-11-19T16:05:59;14.90;99.90
7720;DHT22;3902;49.474;8.616;2023-11-19T16:08:24;14.80;99.90
7720;DHT22;3902;49.474;8.616;2023-11-19T16:10:50;14.80;99.90
7720;DHT22;3902;49.474;8.616;2023-11-19T16:13:16;14.80;99.90